Time;durP1;ratioP1;P1;durP2;ratioP2;P2;SDS_P1;SDS_P2;PMS_P1;PMS_P2;Temp;Humidity;BMP_temperature;BMP_pressure;BME280_temperature;BME280_humidity;BME280_pressure;Samples;Min_cycle;Max_cycle;Signal;HPM_P1;HPM_P2
2019/07/28 00:01:02;;;;;;;5.45;4.95;;;;;;;18.14;100;93693.48;;;;
2019/07/28 00:02:09;;;;;;;5.45;4.95;;;;;;;18.14;100;93693.48;;;;
2019/07/28 00:03:10;;;;;;;5.45;4.95;;;;;;;18.14;100;93693.48;;;;
2019/07/28 00:04:11;;;;;;;5.45;4.95;;;;;;;18.14;100;93693.48;;;;
2019/07/28 00:05:13;;;;;;;5.45;4.95;;;;;;;18.14;100;93693.48;;;;
2019/07/28 00:06:14;;;;;;;5.45;4.95;;;;;;;18.14;100;93693.48;;;;
2019/07/28 00:07:15;;;;;;;5.45;4.95;;;;;;;18.14;100;93693.48;;;;
2019/07/28 00:08:16;;;;;;;5.45;4.95;;;;;;;18.14;100;93693.48;;;;
2019/07/28 00:09:17;;;;;;;5.45;4.95;;;;;;;18.14;100;93693.48;;;;
2019/07/28 00:10:18;;;;;;;5.45;4.95;;;;;;;18.14;100;93693.48;;;;
2019/07/28 00:11:19;;;;;;;5.299999;4.799999;;;;;;;18.17;100;93695.15;;;;
2019/07/28 00:12:21;;;;;;;5.299999;4.799999;;;;;;;18.17;100;93695.15;;;;
2019/07/28 00:13:22;;;;;;;5.299999;4.799999;;;;;;;18.17;100;93695.15;;;;
2019/07/28 00:14:23;;;;;;;5.299999;4.799999;;;;;;;18.17;100;93695.15;;;;
2019/07/28 00:15:24;;;;;;;5.299999;4.799999;;;;;;;18.17;100;93695.15;;;;
2019/07/28 00:16:25;;;;;;;5.299999;4.799999;;;;;;;18.17;100;93695.15;;;;
2019/07/28 00:17:26;;;;;;;5.299999;4.799999;;;;;;;18.17;100;93695.15;;;;
2019/07/28 00:18:28;;;;;;;5.299999;4.799999;;;;;;;18.17;100;93695.15;;;;
2019/07/28 00:19:29;;;;;;;5.299999;4.799999;;;;;;;18.17;100;93695.15;;;;
2019/07/28 00:20:30;;;;;;;5.299999;4.799999;;;;;;;18.17;100;93695.15;;;;
2019/07/28 00:21:31;;;;;;;5.400001;4.649999;;;;;;;18.24;100;93695.11;;;;
2019/07/28 00:22:32;;;;;;;5.400001;4.649999;;;;;;;18.24;100;93695.11;;;;
2019/07/28 00:23:33;;;;;;;5.400001;4.649999;;;;;;;18.24;100;93695.11;;;;
2019/07/28 00:24:34;;;;;;;5.400001;4.649999;;;;;;;18.24;100;93695.11;;;;
2019/07/28 00:25:35;;;;;;;5.400001;4.649999;;;;;;;18.24;100;93695.11;;;;
2019/07/28 00:26:37;;;;;;;5.400001;4.649999;;;;;;;18.24;100;93695.11;;;;
2019/07/28 00:27:38;;;;;;;5.400001;4.649999;;;;;;;18.24;100;93695.11;;;;
2019/07/28 00:28:39;;;;;;;5.400001;4.649999;;;;;;;18.24;100;93695.11;;;;
2019/07/28 00:29:40;;;;;;;5.400001;4.649999;;;;;;;18.24;100;93695.11;;;;
2019/07/28 00:30:41;;;;;;;5.400001;4.649999;;;;;;;18.24;100;93695.11;;;;
2019/07/28 00:31:47;;;;;;;5.400001;4.649999;;;;;;;18.24;100;93695.11;;;;
2019/07/28 00:32:48;;;;;;;5.5;4.849999;;;;;;;18.14;100;93692.27;;;;
2019/07/28 00:33:49;;;;;;;5.5;4.849999;;;;;;;18.14;100;93692.27;;;;
2019/07/28 00:34:50;;;;;;;5.5;4.849999;;;;;;;18.14;100;93692.27;;;;
2019/07/28 00:35:51;;;;;;;5.5;4.849999;;;;;;;18.14;100;93692.27;;;;
2019/07/28 00:36:53;;;;;;;5.5;4.849999;;;;;;;18.14;100;93692.27;;;;
2019/07/28 00:37:54;;;;;;;5.5;4.849999;;;;;;;18.14;100;93692.27;;;;
2019/07/28 00:38:55;;;;;;;5.5;4.849999;;;;;;;18.14;100;93692.27;;;;
2019/07/28 00:39:56;;;;;;;5.5;4.849999;;;;;;;18.14;100;93692.27;;;;
2019/07/28 00:40:57;;;;;;;5.5;4.849999;;;;;;;18.14;100;93692.27;;;;
2019/07/28 00:41:58;;;;;;;5.5;4.849999;;;;;;;18.14;100;93692.27;;;;
2019/07/28 00:42:59;;;;;;;4.55;4.15;;;;;;;18.07;100;93700;;;;
2019/07/28 00:44:01;;;;;;;4.55;4.15;;;;;;;18.07;100;93700;;;;
2019/07/28 00:45:02;;;;;;;4.55;4.15;;;;;;;18.07;100;93700;;;;
2019/07/28 00:46:03;;;;;;;4.55;4.15;;;;;;;18.07;100;93700;;;;
2019/07/28 00:47:05;;;;;;;4.55;4.15;;;;;;;18.07;100;93700;;;;
2019/07/28 00:48:06;;;;;;;4.55;4.15;;;;;;;18.07;100;93700;;;;
2019/07/28 00:49:07;;;;;;;4.55;4.15;;;;;;;18.07;100;93700;;;;
2019/07/28 00:50:08;;;;;;;4.55;4.15;;;;;;;18.07;100;93700;;;;
2019/07/28 00:51:09;;;;;;;4.55;4.15;;;;;;;18.07;100;93700;;;;
2019/07/28 00:52:10;;;;;;;4.55;4.15;;;;;;;18.07;100;93700;;;;
2019/07/28 00:53:12;;;;;;;5.199999;4.699999;;;;;;;17.95;100;93674.04;;;;
2019/07/28 00:54:13;;;;;;;5.199999;4.699999;;;;;;;17.95;100;93674.04;;;;
2019/07/28 00:55:14;;;;;;;5.199999;4.699999;;;;;;;17.95;100;93674.04;;;;
2019/07/28 00:56:15;;;;;;;5.199999;4.699999;;;;;;;17.95;100;93674.04;;;;
2019/07/28 00:57:16;;;;;;;5.199999;4.699999;;;;;;;17.95;100;93674.04;;;;
2019/07/28 00:58:18;;;;;;;5.199999;4.699999;;;;;;;17.95;100;93674.04;;;;
2019/07/28 00:59:19;;;;;;;5.199999;4.699999;;;;;;;17.95;100;93674.04;;;;
2019/07/28 01:00:20;;;;;;;5.199999;4.699999;;;;;;;17.95;100;93674.04;;;;
2019/07/28 01:01:28;;;;;;;5.199999;4.699999;;;;;;;17.95;100;93674.04;;;;
2019/07/28 01:02:29;;;;;;;5.199999;4.699999;;;;;;;17.95;100;93674.04;;;;
2019/07/28 01:03:30;;;;;;;5.199999;4.699999;;;;;;;17.95;100;93674.04;;;;
2019/07/28 01:04:31;;;;;;;5.7;4.5;;;;;;;17.88;100;93672.76;;;;
2019/07/28 01:05:32;;;;;;;5.7;4.5;;;;;;;17.88;100;93672.76;;;;
2019/07/28 01:06:34;;;;;;;5.7;4.5;;;;;;;17.88;100;93672.76;;;;
2019/07/28 01:07:35;;;;;;;5.7;4.5;;;;;;;17.88;100;93672.76;;;;
2019/07/28 01:08:36;;;;;;;5.7;4.5;;;;;;;17.88;100;93672.76;;;;
2019/07/28 01:09:37;;;;;;;5.7;4.5;;;;;;;17.88;100;93672.76;;;;
2019/07/28 01:10:38;;;;;;;5.7;4.5;;;;;;;17.88;100;93672.76;;;;
2019/07/28 01:11:40;;;;;;;5.7;4.5;;;;;;;17.88;100;93672.76;;;;
2019/07/28 01:12:41;;;;;;;5.7;4.5;;;;;;;17.88;100;93672.76;;;;
2019/07/28 01:13:42;;;;;;;5.7;4.5;;;;;;;17.88;100;93672.76;;;;
2019/07/28 01:14:43;;;;;;;5.35;4.9;;;;;;;17.78;100;93678.91;;;;
2019/07/28 01:15:44;;;;;;;5.35;4.9;;;;;;;17.78;100;93678.91;;;;
2019/07/28 01:16:45;;;;;;;5.35;4.9;;;;;;;17.78;100;93678.91;;;;
2019/07/28 01:17:47;;;;;;;5.35;4.9;;;;;;;17.78;100;93678.91;;;;
2019/07/28 01:18:48;;;;;;;5.35;4.9;;;;;;;17.78;100;93678.91;;;;
2019/07/28 01:19:49;;;;;;;5.35;4.9;;;;;;;17.78;100;93678.91;;;;
2019/07/28 01:20:50;;;;;;;5.35;4.9;;;;;;;17.78;100;93678.91;;;;
2019/07/28 01:21:54;;;;;;;5.35;4.9;;;;;;;17.78;100;93678.91;;;;
2019/07/28 01:22:55;;;;;;;5.35;4.9;;;;;;;17.78;100;93678.91;;;;
2019/07/28 01:23:56;;;;;;;5.35;4.9;;;;;;;17.78;100;93678.91;;;;
2019/07/28 01:24:57;;;;;;;5.900001;4.900001;;;;;;;17.77;100;93674.19;;;;
2019/07/28 01:25:59;;;;;;;5.900001;4.900001;;;;;;;17.77;100;93674.19;;;;
2019/07/28 01:27:00;;;;;;;5.900001;4.900001;;;;;;;17.77;100;93674.19;;;;
2019/07/28 01:28:01;;;;;;;5.900001;4.900001;;;;;;;17.77;100;93674.19;;;;
2019/07/28 01:29:02;;;;;;;5.900001;4.900001;;;;;;;17.77;100;93674.19;;;;
2019/07/28 01:30:03;;;;;;;5.900001;4.900001;;;;;;;17.77;100;93674.19;;;;
2019/07/28 01:31:05;;;;;;;5.900001;4.900001;;;;;;;17.77;100;93674.19;;;;
2019/07/28 01:32:07;;;;;;;5.900001;4.900001;;;;;;;17.77;100;93674.19;;;;
2019/07/28 01:33:08;;;;;;;5.900001;4.900001;;;;;;;17.77;100;93674.19;;;;
2019/07/28 01:34:09;;;;;;;5.900001;4.900001;;;;;;;17.77;100;93674.19;;;;
2019/07/28 01:35:10;;;;;;;5.900001;4.900001;;;;;;;17.77;100;93674.19;;;;
2019/07/28 01:36:12;;;;;;;5.45;4.7;;;;;;;17.66;100;93684.2;;;;
2019/07/28 01:37:13;;;;;;;5.45;4.7;;;;;;;17.66;100;93684.2;;;;
2019/07/28 01:38:14;;;;;;;5.45;4.7;;;;;;;17.66;100;93684.2;;;;
2019/07/28 01:39:15;;;;;;;5.45;4.7;;;;;;;17.66;100;93684.2;;;;
2019/07/28 01:40:16;;;;;;;5.45;4.7;;;;;;;17.66;100;93684.2;;;;
2019/07/28 01:41:18;;;;;;;5.45;4.7;;;;;;;17.66;100;93684.2;;;;
2019/07/28 01:42:19;;;;;;;5.45;4.7;;;;;;;17.66;100;93684.2;;;;
2019/07/28 01:43:20;;;;;;;5.45;4.7;;;;;;;17.66;100;93684.2;;;;
2019/07/28 01:44:21;;;;;;;5.45;4.7;;;;;;;17.66;100;93684.2;;;;
2019/07/28 01:45:22;;;;;;;5.45;4.7;;;;;;;17.66;100;93684.2;;;;
2019/07/28 01:46:23;;;;;;;5.45;4.95;;;;;;;17.68;100;93686.06;;;;
2019/07/28 01:47:24;;;;;;;5.45;4.95;;;;;;;17.68;100;93686.06;;;;
2019/07/28 01:48:26;;;;;;;5.45;4.95;;;;;;;17.68;100;93686.06;;;;
2019/07/28 01:49:27;;;;;;;5.45;4.95;;;;;;;17.68;100;93686.06;;;;
2019/07/28 01:50:28;;;;;;;5.45;4.95;;;;;;;17.68;100;93686.06;;;;
2019/07/28 01:51:29;;;;;;;5.45;4.95;;;;;;;17.68;100;93686.06;;;;
2019/07/28 01:52:30;;;;;;;5.45;4.95;;;;;;;17.68;100;93686.06;;;;
2019/07/28 01:53:31;;;;;;;5.45;4.95;;;;;;;17.68;100;93686.06;;;;
2019/07/28 01:54:32;;;;;;;5.45;4.95;;;;;;;17.68;100;93686.06;;;;
2019/07/28 01:55:34;;;;;;;5.45;4.95;;;;;;;17.68;100;93686.06;;;;
2019/07/28 01:56:35;;;;;;;5.45;4.95;;;;;;;17.68;100;93686.06;;;;
2019/07/28 01:57:36;;;;;;;4.95;4.45;;;;;;;17.78;100;93691.75;;;;
2019/07/28 01:58:37;;;;;;;4.95;4.45;;;;;;;17.78;100;93691.75;;;;
2019/07/28 01:59:38;;;;;;;4.95;4.45;;;;;;;17.78;100;93691.75;;;;
2019/07/28 02:00:39;;;;;;;4.95;4.45;;;;;;;17.78;100;93691.75;;;;
2019/07/28 02:01:52;;;;;;;4.95;4.45;;;;;;;17.78;100;93691.75;;;;
2019/07/28 02:02:53;;;;;;;4.95;4.45;;;;;;;17.78;100;93691.75;;;;
2019/07/28 02:03:54;;;;;;;4.95;4.45;;;;;;;17.78;100;93691.75;;;;
2019/07/28 02:04:55;;;;;;;4.95;4.45;;;;;;;17.78;100;93691.75;;;;
2019/07/28 02:05:56;;;;;;;4.95;4.45;;;;;;;17.78;100;93691.75;;;;
2019/07/28 02:06:59;;;;;;;4.95;4.45;;;;;;;17.78;100;93691.75;;;;
2019/07/28 02:08:00;;;;;;;4.649999;4.25;;;;;;;17.96;100;93668.25;;;;
2019/07/28 02:09:01;;;;;;;4.649999;4.25;;;;;;;17.96;100;93668.25;;;;
2019/07/28 02:10:04;;;;;;;4.649999;4.25;;;;;;;17.96;100;93668.25;;;;
2019/07/28 02:11:07;;;;;;;4.649999;4.25;;;;;;;17.96;100;93668.25;;;;
2019/07/28 02:12:10;;;;;;;4.649999;4.25;;;;;;;17.96;100;93668.25;;;;
2019/07/28 02:13:11;;;;;;;4.649999;4.25;;;;;;;17.96;100;93668.25;;;;
2019/07/28 02:14:13;;;;;;;4.649999;4.25;;;;;;;17.96;100;93668.25;;;;
2019/07/28 02:15:14;;;;;;;4.649999;4.25;;;;;;;17.96;100;93668.25;;;;
2019/07/28 02:16:16;;;;;;;4.649999;4.25;;;;;;;17.96;100;93668.25;;;;
2019/07/28 02:17:17;;;;;;;4.649999;4.25;;;;;;;17.96;100;93668.25;;;;
2019/07/28 02:18:18;;;;;;;5.1;4.699999;;;;;;;18;100;93653.8;;;;
2019/07/28 02:19:19;;;;;;;5.1;4.699999;;;;;;;18;100;93653.8;;;;
2019/07/28 02:20:21;;;;;;;5.1;4.699999;;;;;;;18;100;93653.8;;;;
2019/07/28 02:21:22;;;;;;;5.1;4.699999;;;;;;;18;100;93653.8;;;;
2019/07/28 02:22:23;;;;;;;5.1;4.699999;;;;;;;18;100;93653.8;;;;
2019/07/28 02:23:24;;;;;;;5.1;4.699999;;;;;;;18;100;93653.8;;;;
2019/07/28 02:24:25;;;;;;;5.1;4.699999;;;;;;;18;100;93653.8;;;;
2019/07/28 02:25:27;;;;;;;5.1;4.699999;;;;;;;18;100;93653.8;;;;
2019/07/28 02:26:28;;;;;;;5.1;4.699999;;;;;;;18;100;93653.8;;;;
2019/07/28 02:27:29;;;;;;;5.1;4.699999;;;;;;;18;100;93653.8;;;;
2019/07/28 02:28:30;;;;;;;5.1;4.699999;;;;;;;18;100;93653.8;;;;
2019/07/28 02:29:31;;;;;;;4.95;4.400001;;;;;;;18.03;100;93643.58;;;;
2019/07/28 02:30:32;;;;;;;4.95;4.400001;;;;;;;18.03;100;93643.58;;;;
2019/07/28 02:31:34;;;;;;;4.95;4.400001;;;;;;;18.03;100;93643.58;;;;
2019/07/28 02:32:35;;;;;;;4.95;4.400001;;;;;;;18.03;100;93643.58;;;;
2019/07/28 02:33:36;;;;;;;4.95;4.400001;;;;;;;18.03;100;93643.58;;;;
2019/07/28 02:34:37;;;;;;;4.95;4.400001;;;;;;;18.03;100;93643.58;;;;
2019/07/28 02:35:39;;;;;;;4.95;4.400001;;;;;;;18.03;100;93643.58;;;;
2019/07/28 02:36:40;;;;;;;4.95;4.400001;;;;;;;18.03;100;93643.58;;;;
2019/07/28 02:37:41;;;;;;;4.95;4.400001;;;;;;;18.03;100;93643.58;;;;
2019/07/28 02:38:42;;;;;;;4.95;4.400001;;;;;;;18.03;100;93643.58;;;;
2019/07/28 02:39:43;;;;;;;5.45;4.7;;;;;;;18.01;100;93646.64;;;;
2019/07/28 02:40:44;;;;;;;5.45;4.7;;;;;;;18.01;100;93646.64;;;;
2019/07/28 02:41:46;;;;;;;5.45;4.7;;;;;;;18.01;100;93646.64;;;;
2019/07/28 02:42:47;;;;;;;5.45;4.7;;;;;;;18.01;100;93646.64;;;;
2019/07/28 02:43:48;;;;;;;5.45;4.7;;;;;;;18.01;100;93646.64;;;;
2019/07/28 02:44:49;;;;;;;5.45;4.7;;;;;;;18.01;100;93646.64;;;;
2019/07/28 02:45:50;;;;;;;5.45;4.7;;;;;;;18.01;100;93646.64;;;;
2019/07/28 02:46:56;;;;;;;5.45;4.7;;;;;;;18.01;100;93646.64;;;;
2019/07/28 02:47:57;;;;;;;5.45;4.7;;;;;;;18.01;100;93646.64;;;;
2019/07/28 02:48:59;;;;;;;5.45;4.7;;;;;;;18.01;100;93646.64;;;;
2019/07/28 02:50:00;;;;;;;5.2;4.5;;;;;;;18.13;100;93662.4;;;;
2019/07/28 02:51:01;;;;;;;5.2;4.5;;;;;;;18.13;100;93662.4;;;;
2019/07/28 02:52:03;;;;;;;5.2;4.5;;;;;;;18.13;100;93662.4;;;;
2019/07/28 02:53:04;;;;;;;5.2;4.5;;;;;;;18.13;100;93662.4;;;;
2019/07/28 02:54:05;;;;;;;5.2;4.5;;;;;;;18.13;100;93662.4;;;;
2019/07/28 02:55:06;;;;;;;5.2;4.5;;;;;;;18.13;100;93662.4;;;;
2019/07/28 02:56:07;;;;;;;5.2;4.5;;;;;;;18.13;100;93662.4;;;;
2019/07/28 02:57:09;;;;;;;5.2;4.5;;;;;;;18.13;100;93662.4;;;;
2019/07/28 02:58:10;;;;;;;5.2;4.5;;;;;;;18.13;100;93662.4;;;;
2019/07/28 02:59:11;;;;;;;5.2;4.5;;;;;;;18.13;100;93662.4;;;;
2019/07/28 03:00:13;;;;;;;5.2;4.5;;;;;;;18.13;100;93662.4;;;;
2019/07/28 03:01:15;;;;;;;4.7;4.3;;;;;;;18.19;100;93672.42;;;;
2019/07/28 03:02:16;;;;;;;4.7;4.3;;;;;;;18.19;100;93672.42;;;;
2019/07/28 03:03:17;;;;;;;4.7;4.3;;;;;;;18.19;100;93672.42;;;;
2019/07/28 03:04:18;;;;;;;4.7;4.3;;;;;;;18.19;100;93672.42;;;;
2019/07/28 03:05:19;;;;;;;4.7;4.3;;;;;;;18.19;100;93672.42;;;;
2019/07/28 03:06:21;;;;;;;4.7;4.3;;;;;;;18.19;100;93672.42;;;;
2019/07/28 03:07:22;;;;;;;4.7;4.3;;;;;;;18.19;100;93672.42;;;;
2019/07/28 03:08:23;;;;;;;4.7;4.3;;;;;;;18.19;100;93672.42;;;;
2019/07/28 03:09:24;;;;;;;4.7;4.3;;;;;;;18.19;100;93672.42;;;;
2019/07/28 03:10:25;;;;;;;4.7;4.3;;;;;;;18.19;100;93672.42;;;;
2019/07/28 03:11:26;;;;;;;4.099999;3.8;;;;;;;18.32;100;93678.44;;;;
2019/07/28 03:12:28;;;;;;;4.099999;3.8;;;;;;;18.32;100;93678.44;;;;
2019/07/28 03:13:29;;;;;;;4.099999;3.8;;;;;;;18.32;100;93678.44;;;;
2019/07/28 03:14:30;;;;;;;4.099999;3.8;;;;;;;18.32;100;93678.44;;;;
2019/07/28 03:15:31;;;;;;;4.099999;3.8;;;;;;;18.32;100;93678.44;;;;
2019/07/28 03:16:32;;;;;;;4.099999;3.8;;;;;;;18.32;100;93678.44;;;;
2019/07/28 03:17:33;;;;;;;4.099999;3.8;;;;;;;18.32;100;93678.44;;;;
2019/07/28 03:18:34;;;;;;;4.099999;3.8;;;;;;;18.32;100;93678.44;;;;
2019/07/28 03:19:36;;;;;;;4.099999;3.8;;;;;;;18.32;100;93678.44;;;;
2019/07/28 03:20:37;;;;;;;4.099999;3.8;;;;;;;18.32;100;93678.44;;;;
2019/07/28 03:21:38;;;;;;;4.099999;3.8;;;;;;;18.32;100;93678.44;;;;
2019/07/28 03:22:39;;;;;;;5.550001;4.1;;;;;;;18.34;100;93653.38;;;;
2019/07/28 03:23:40;;;;;;;5.550001;4.1;;;;;;;18.34;100;93653.38;;;;
2019/07/28 03:24:41;;;;;;;5.550001;4.1;;;;;;;18.34;100;93653.38;;;;
2019/07/28 03:25:42;;;;;;;5.550001;4.1;;;;;;;18.34;100;93653.38;;;;
2019/07/28 03:26:44;;;;;;;5.550001;4.1;;;;;;;18.34;100;93653.38;;;;
2019/07/28 03:27:45;;;;;;;5.550001;4.1;;;;;;;18.34;100;93653.38;;;;
2019/07/28 03:28:46;;;;;;;5.550001;4.1;;;;;;;18.34;100;93653.38;;;;
2019/07/28 03:29:47;;;;;;;5.550001;4.1;;;;;;;18.34;100;93653.38;;;;
2019/07/28 03:30:48;;;;;;;5.550001;4.1;;;;;;;18.34;100;93653.38;;;;
2019/07/28 03:31:49;;;;;;;5.550001;4.1;;;;;;;18.34;100;93653.38;;;;
2019/07/28 03:32:51;;;;;;;4.900001;4.4;;;;;;;18.42;100;93658.45;;;;
2019/07/28 03:33:52;;;;;;;4.900001;4.4;;;;;;;18.42;100;93658.45;;;;
2019/07/28 03:34:53;;;;;;;4.900001;4.4;;;;;;;18.42;100;93658.45;;;;
2019/07/28 03:35:54;;;;;;;4.900001;4.4;;;;;;;18.42;100;93658.45;;;;
2019/07/28 03:36:55;;;;;;;4.900001;4.4;;;;;;;18.42;100;93658.45;;;;
2019/07/28 03:37:56;;;;;;;4.900001;4.4;;;;;;;18.42;100;93658.45;;;;
2019/07/28 03:38:57;;;;;;;4.900001;4.4;;;;;;;18.42;100;93658.45;;;;
2019/07/28 03:39:58;;;;;;;4.900001;4.4;;;;;;;18.42;100;93658.45;;;;
2019/07/28 03:40:59;;;;;;;4.900001;4.4;;;;;;;18.42;100;93658.45;;;;
2019/07/28 03:42:00;;;;;;;4.900001;4.4;;;;;;;18.42;100;93658.45;;;;
2019/07/28 03:43:02;;;;;;;5.05;4.55;;;;;;;18.44;100;93645.26;;;;
2019/07/28 03:44:04;;;;;;;5.05;4.55;;;;;;;18.44;100;93645.26;;;;
2019/07/28 03:45:05;;;;;;;5.05;4.55;;;;;;;18.44;100;93645.26;;;;
2019/07/28 03:46:06;;;;;;;5.05;4.55;;;;;;;18.44;100;93645.26;;;;
2019/07/28 03:47:08;;;;;;;5.05;4.55;;;;;;;18.44;100;93645.26;;;;
2019/07/28 03:48:09;;;;;;;5.05;4.55;;;;;;;18.44;100;93645.26;;;;
2019/07/28 03:49:10;;;;;;;5.05;4.55;;;;;;;18.44;100;93645.26;;;;
2019/07/28 03:50:11;;;;;;;5.05;4.55;;;;;;;18.44;100;93645.26;;;;
2019/07/28 03:51:12;;;;;;;5.05;4.55;;;;;;;18.44;100;93645.26;;;;
2019/07/28 03:52:13;;;;;;;5.05;4.55;;;;;;;18.44;100;93645.26;;;;
2019/07/28 03:53:14;;;;;;;5.05;4.55;;;;;;;18.44;100;93645.26;;;;
2019/07/28 03:54:15;;;;;;;6.05;4.65;;;;;;;18.52;100;93617.13;;;;
2019/07/28 03:55:16;;;;;;;6.05;4.65;;;;;;;18.52;100;93617.13;;;;
2019/07/28 03:56:18;;;;;;;6.05;4.65;;;;;;;18.52;100;93617.13;;;;
2019/07/28 03:57:19;;;;;;;6.05;4.65;;;;;;;18.52;100;93617.13;;;;
2019/07/28 03:58:20;;;;;;;6.05;4.65;;;;;;;18.52;100;93617.13;;;;
2019/07/28 03:59:21;;;;;;;6.05;4.65;;;;;;;18.52;100;93617.13;;;;
2019/07/28 04:00:22;;;;;;;6.05;4.65;;;;;;;18.52;100;93617.13;;;;
2019/07/28 04:01:43;;;;;;;6.05;4.65;;;;;;;18.52;100;93617.13;;;;
2019/07/28 04:02:44;;;;;;;6.05;4.65;;;;;;;18.52;100;93617.13;;;;
2019/07/28 04:03:45;;;;;;;6.05;4.65;;;;;;;18.52;100;93617.13;;;;
2019/07/28 04:04:46;;;;;;;5.299999;4.600001;;;;;;;18.56;100;93644.05;;;;
2019/07/28 04:05:47;;;;;;;5.299999;4.600001;;;;;;;18.56;100;93644.05;;;;
2019/07/28 04:06:48;;;;;;;5.299999;4.600001;;;;;;;18.56;100;93644.05;;;;
2019/07/28 04:07:49;;;;;;;5.299999;4.600001;;;;;;;18.56;100;93644.05;;;;
2019/07/28 04:08:51;;;;;;;5.299999;4.600001;;;;;;;18.56;100;93644.05;;;;
2019/07/28 04:09:52;;;;;;;5.299999;4.600001;;;;;;;18.56;100;93644.05;;;;
2019/07/28 04:10:53;;;;;;;5.299999;4.600001;;;;;;;18.56;100;93644.05;;;;
2019/07/28 04:11:54;;;;;;;5.299999;4.600001;;;;;;;18.56;100;93644.05;;;;
2019/07/28 04:12:55;;;;;;;5.299999;4.600001;;;;;;;18.56;100;93644.05;;;;
2019/07/28 04:13:56;;;;;;;5.299999;4.600001;;;;;;;18.56;100;93644.05;;;;
2019/07/28 04:14:57;;;;;;;5.3;4.2;;;;;;;18.67;100;93639.81;;;;
2019/07/28 04:15:58;;;;;;;5.3;4.2;;;;;;;18.67;100;93639.81;;;;
2019/07/28 04:17:00;;;;;;;5.3;4.2;;;;;;;18.67;100;93639.81;;;;
2019/07/28 04:18:01;;;;;;;5.3;4.2;;;;;;;18.67;100;93639.81;;;;
2019/07/28 04:19:02;;;;;;;5.3;4.2;;;;;;;18.67;100;93639.81;;;;
2019/07/28 04:20:03;;;;;;;5.3;4.2;;;;;;;18.67;100;93639.81;;;;
2019/07/28 04:21:04;;;;;;;5.3;4.2;;;;;;;18.67;100;93639.81;;;;
2019/07/28 04:22:05;;;;;;;5.3;4.2;;;;;;;18.67;100;93639.81;;;;
2019/07/28 04:23:06;;;;;;;5.3;4.2;;;;;;;18.67;100;93639.81;;;;
2019/07/28 04:24:07;;;;;;;5.3;4.2;;;;;;;18.67;100;93639.81;;;;
2019/07/28 04:25:09;;;;;;;5.3;4.2;;;;;;;18.67;100;93639.81;;;;
2019/07/28 04:26:10;;;;;;;6.149999;4.75;;;;;;;18.74;100;93645.21;;;;
2019/07/28 04:27:11;;;;;;;6.149999;4.75;;;;;;;18.74;100;93645.21;;;;
2019/07/28 04:28:12;;;;;;;6.149999;4.75;;;;;;;18.74;100;93645.21;;;;
2019/07/28 04:29:13;;;;;;;6.149999;4.75;;;;;;;18.74;100;93645.21;;;;
2019/07/28 04:30:15;;;;;;;6.149999;4.75;;;;;;;18.74;100;93645.21;;;;
2019/07/28 04:31:16;;;;;;;6.149999;4.75;;;;;;;18.74;100;93645.21;;;;
2019/07/28 04:32:17;;;;;;;6.149999;4.75;;;;;;;18.74;100;93645.21;;;;
2019/07/28 04:33:18;;;;;;;6.149999;4.75;;;;;;;18.74;100;93645.21;;;;
2019/07/28 04:34:20;;;;;;;6.149999;4.75;;;;;;;18.74;100;93645.21;;;;
2019/07/28 04:35:21;;;;;;;6.149999;4.75;;;;;;;18.74;100;93645.21;;;;
2019/07/28 04:36:22;;;;;;;6.2;4.8;;;;;;;18.92;100;93646.77;;;;
2019/07/28 04:37:23;;;;;;;6.2;4.8;;;;;;;18.92;100;93646.77;;;;
2019/07/28 04:38:24;;;;;;;6.2;4.8;;;;;;;18.92;100;93646.77;;;;
2019/07/28 04:39:27;;;;;;;6.2;4.8;;;;;;;18.92;100;93646.77;;;;
2019/07/28 04:40:28;;;;;;;6.2;4.8;;;;;;;18.92;100;93646.77;;;;
2019/07/28 04:41:29;;;;;;;6.2;4.8;;;;;;;18.92;100;93646.77;;;;
2019/07/28 04:42:30;;;;;;;6.2;4.8;;;;;;;18.92;100;93646.77;;;;
2019/07/28 04:43:31;;;;;;;6.2;4.8;;;;;;;18.92;100;93646.77;;;;
2019/07/28 04:44:32;;;;;;;6.2;4.8;;;;;;;18.92;100;93646.77;;;;
2019/07/28 04:45:33;;;;;;;6.2;4.8;;;;;;;18.92;100;93646.77;;;;
2019/07/28 04:46:34;;;;;;;6.5;5.1;;;;;;;19.09;100;93641.62;;;;
2019/07/28 04:47:35;;;;;;;6.5;5.1;;;;;;;19.09;100;93641.62;;;;
2019/07/28 04:48:36;;;;;;;6.5;5.1;;;;;;;19.09;100;93641.62;;;;
2019/07/28 04:49:38;;;;;;;6.5;5.1;;;;;;;19.09;100;93641.62;;;;
2019/07/28 04:50:39;;;;;;;6.5;5.1;;;;;;;19.09;100;93641.62;;;;
2019/07/28 04:51:40;;;;;;;6.5;5.1;;;;;;;19.09;100;93641.62;;;;
2019/07/28 04:52:41;;;;;;;6.5;5.1;;;;;;;19.09;100;93641.62;;;;
2019/07/28 04:53:42;;;;;;;6.5;5.1;;;;;;;19.09;100;93641.62;;;;
2019/07/28 04:54:43;;;;;;;6.5;5.1;;;;;;;19.09;100;93641.62;;;;
2019/07/28 04:55:44;;;;;;;6.5;5.1;;;;;;;19.09;100;93641.62;;;;
2019/07/28 04:56:45;;;;;;;6.5;5.1;;;;;;;19.09;100;93641.62;;;;
2019/07/28 04:57:46;;;;;;;5.95;5.15;;;;;;;19.35;100;93661.66;;;;
2019/07/28 04:58:47;;;;;;;5.95;5.15;;;;;;;19.35;100;93661.66;;;;
2019/07/28 04:59:49;;;;;;;5.95;5.15;;;;;;;19.35;100;93661.66;;;;
2019/07/28 05:00:50;;;;;;;5.95;5.15;;;;;;;19.35;100;93661.66;;;;
2019/07/28 05:01:51;;;;;;;5.95;5.15;;;;;;;19.35;100;93661.66;;;;
2019/07/28 05:02:52;;;;;;;5.95;5.15;;;;;;;19.35;100;93661.66;;;;
2019/07/28 05:03:53;;;;;;;5.95;5.15;;;;;;;19.35;100;93661.66;;;;
2019/07/28 05:04:54;;;;;;;5.95;5.15;;;;;;;19.35;100;93661.66;;;;
2019/07/28 05:05:55;;;;;;;5.95;5.15;;;;;;;19.35;100;93661.66;;;;
2019/07/28 05:06:56;;;;;;;5.95;5.15;;;;;;;19.35;100;93661.66;;;;
2019/07/28 05:07:57;;;;;;;6.9;5.85;;;;;;;19.5;100;93663.25;;;;
2019/07/28 05:08:59;;;;;;;6.9;5.85;;;;;;;19.5;100;93663.25;;;;
2019/07/28 05:10:00;;;;;;;6.9;5.85;;;;;;;19.5;100;93663.25;;;;
2019/07/28 05:11:01;;;;;;;6.9;5.85;;;;;;;19.5;100;93663.25;;;;
2019/07/28 05:12:02;;;;;;;6.9;5.85;;;;;;;19.5;100;93663.25;;;;
2019/07/28 05:13:03;;;;;;;6.9;5.85;;;;;;;19.5;100;93663.25;;;;
2019/07/28 05:14:04;;;;;;;6.9;5.85;;;;;;;19.5;100;93663.25;;;;
2019/07/28 05:15:06;;;;;;;6.9;5.85;;;;;;;19.5;100;93663.25;;;;
2019/07/28 05:16:07;;;;;;;6.9;5.85;;;;;;;19.5;100;93663.25;;;;
2019/07/28 05:17:08;;;;;;;6.9;5.85;;;;;;;19.5;100;93663.25;;;;
2019/07/28 05:18:09;;;;;;;6.9;5.85;;;;;;;19.5;100;93663.25;;;;
2019/07/28 05:19:10;;;;;;;6.05;5.55;;;;;;;19.6;99.76367;93656.61;;;;
2019/07/28 05:20:11;;;;;;;6.05;5.55;;;;;;;19.6;99.76367;93656.61;;;;
2019/07/28 05:21:20;;;;;;;6.05;5.55;;;;;;;19.6;99.76367;93656.61;;;;
2019/07/28 05:22:21;;;;;;;6.05;5.55;;;;;;;19.6;99.76367;93656.61;;;;
2019/07/28 05:23:22;;;;;;;6.05;5.55;;;;;;;19.6;99.76367;93656.61;;;;
2019/07/28 05:24:23;;;;;;;6.05;5.55;;;;;;;19.6;99.76367;93656.61;;;;
2019/07/28 05:25:24;;;;;;;6.05;5.55;;;;;;;19.6;99.76367;93656.61;;;;
2019/07/28 05:26:25;;;;;;;6.05;5.55;;;;;;;19.6;99.76367;93656.61;;;;
2019/07/28 05:27:26;;;;;;;6.05;5.55;;;;;;;19.6;99.76367;93656.61;;;;
2019/07/28 05:28:27;;;;;;;6.05;5.55;;;;;;;19.6;99.76367;93656.61;;;;
2019/07/28 05:29:29;;;;;;;7.15;6.149999;;;;;;;19.59;99.62109;93666.35;;;;
2019/07/28 05:30:30;;;;;;;7.15;6.149999;;;;;;;19.59;99.62109;93666.35;;;;
2019/07/28 05:31:48;;;;;;;7.15;6.149999;;;;;;;19.59;99.62109;93666.35;;;;
2019/07/28 05:32:49;;;;;;;7.15;6.149999;;;;;;;19.59;99.62109;93666.35;;;;
2019/07/28 05:33:50;;;;;;;7.15;6.149999;;;;;;;19.59;99.62109;93666.35;;;;
2019/07/28 05:34:51;;;;;;;7.15;6.149999;;;;;;;19.59;99.62109;93666.35;;;;
2019/07/28 05:35:53;;;;;;;7.15;6.149999;;;;;;;19.59;99.62109;93666.35;;;;
2019/07/28 05:36:54;;;;;;;7.15;6.149999;;;;;;;19.59;99.62109;93666.35;;;;
2019/07/28 05:37:55;;;;;;;7.15;6.149999;;;;;;;19.59;99.62109;93666.35;;;;
2019/07/28 05:38:56;;;;;;;7.15;6.149999;;;;;;;19.59;99.62109;93666.35;;;;
2019/07/28 05:39:57;;;;;;;8.85;7.25;;;;;;;19.72;99.56543;93653.39;;;;
2019/07/28 05:40:58;;;;;;;8.85;7.25;;;;;;;19.72;99.56543;93653.39;;;;
2019/07/28 05:42:01;;;;;;;8.85;7.25;;;;;;;19.72;99.56543;93653.39;;;;
2019/07/28 05:43:03;;;;;;;8.85;7.25;;;;;;;19.72;99.56543;93653.39;;;;
2019/07/28 05:44:04;;;;;;;8.85;7.25;;;;;;;19.72;99.56543;93653.39;;;;
2019/07/28 05:45:05;;;;;;;8.85;7.25;;;;;;;19.72;99.56543;93653.39;;;;
2019/07/28 05:46:07;;;;;;;8.85;7.25;;;;;;;19.72;99.56543;93653.39;;;;
2019/07/28 05:47:08;;;;;;;8.85;7.25;;;;;;;19.72;99.56543;93653.39;;;;
2019/07/28 05:48:09;;;;;;;8.85;7.25;;;;;;;19.72;99.56543;93653.39;;;;
2019/07/28 05:49:11;;;;;;;8.85;7.25;;;;;;;19.72;99.56543;93653.39;;;;
2019/07/28 05:50:12;;;;;;;8.85;7.25;;;;;;;19.72;99.56543;93653.39;;;;
2019/07/28 05:51:14;;;;;;;10.95;8.050001;;;;;;;19.85;99.39746;93653.86;;;;
2019/07/28 05:52:15;;;;;;;10.95;8.050001;;;;;;;19.85;99.39746;93653.86;;;;
2019/07/28 05:53:16;;;;;;;10.95;8.050001;;;;;;;19.85;99.39746;93653.86;;;;
2019/07/28 05:54:18;;;;;;;10.95;8.050001;;;;;;;19.85;99.39746;93653.86;;;;
2019/07/28 05:55:19;;;;;;;10.95;8.050001;;;;;;;19.85;99.39746;93653.86;;;;
2019/07/28 05:56:20;;;;;;;10.95;8.050001;;;;;;;19.85;99.39746;93653.86;;;;
2019/07/28 05:57:21;;;;;;;10.95;8.050001;;;;;;;19.85;99.39746;93653.86;;;;
2019/07/28 05:58:22;;;;;;;10.95;8.050001;;;;;;;19.85;99.39746;93653.86;;;;
2019/07/28 05:59:23;;;;;;;10.95;8.050001;;;;;;;19.85;99.39746;93653.86;;;;
2019/07/28 06:00:24;;;;;;;10.95;8.050001;;;;;;;19.85;99.39746;93653.86;;;;
2019/07/28 06:01:33;;;;;;;11.1;8.600001;;;;;;;19.98;99.19727;93643.22;;;;
2019/07/28 06:02:34;;;;;;;11.1;8.600001;;;;;;;19.98;99.19727;93643.22;;;;